Time;durP1;ratioP1;P1;durP2;ratioP2;P2;SDS_P1;SDS_P2;PMS_P1;PMS_P2;Temp;Humidity;BMP_temperature;BMP_pressure;BME280_temperature;BME280_humidity;BME280_pressure;Samples;Min_cycle;Max_cycle;Signal;HPM_P1;HPM_P2
2022/08/28 00:00:39;;;;;;;16.80;7.90;;;;;;;23.17;44.59;99945.66;106515;1268;22590;-75
2022/08/28 00:03:09;;;;;;;10.90;7.70;;;;;;;23.10;45.17;99943.29;106714;1268;22835;-75
2022/08/28 00:05:38;;;;;;;15.90;7.80;;;;;;;23.06;45.48;99943.00;106568;1268;25370;-77
2022/08/28 00:08:07;;;;;;;11.60;8.10;;;;;;;23.01;45.95;99941.73;106728;1268;25509;-75
2022/08/28 00:10:34;;;;;;;9.70;7.20;;;;;;;22.93;46.06;99948.36;106638;1268;24284;-75
2022/08/28 00:13:01;;;;;;;9.80;7.40;;;;;;;22.88;46.39;99951.01;106580;1268;22728;-75
2022/08/28 00:15:32;;;;;;;15.80;9.50;;;;;;;22.85;46.57;99948.02;106800;1268;25242;-74
2022/08/28 00:18:00;;;;;;;13.60;7.00;;;;;;;22.80;46.92;99951.92;106971;1268;22502;-76
2022/08/28 00:20:28;;;;;;;13.30;7.00;;;;;;;22.74;46.75;99947.10;107149;1268;24381;-74
2022/08/28 00:22:56;;;;;;;13.90;6.10;;;;;;;22.70;46.70;99945.27;106805;1268;22685;-75
2022/08/28 00:25:25;;;;;;;13.70;7.10;;;;;;;22.67;47.20;99949.21;106608;1268;26503;-76
2022/08/28 00:27:53;;;;;;;13.00;6.60;;;;;;;22.64;47.26;99949.21;106826;1268;22746;-75
2022/08/28 00:30:35;;;;;;;16.00;6.50;;;;;;;22.60;47.30;99943.89;106903;1268;22588;-73
2022/08/28 00:33:14;;;;;;;11.80;6.40;;;;;;;22.57;47.35;99945.89;106592;1268;22555;-73
2022/08/28 00:35:42;;;;;;;9.50;6.70;;;;;;;22.53;47.70;99945.45;106855;1268;25393;-74
2022/08/28 00:38:11;;;;;;;12.00;6.50;;;;;;;22.49;47.45;99945.34;106285;1268;22687;-72
2022/08/28 00:40:41;;;;;;;11.90;6.60;;;;;;;22.42;47.52;99943.48;106482;1268;25387;-74
2022/08/28 00:43:21;;;;;;;16.50;6.60;;;;;;;22.37;47.58;99942.36;106489;1268;22540;-73
2022/08/28 00:45:48;;;;;;;9.90;6.70;;;;;;;22.31;47.80;99936.79;106449;1268;22528;-74
2022/08/28 00:48:14;;;;;;;12.20;6.50;;;;;;;22.27;48.10;99933.83;106280;1268;22521;-73
2022/08/28 00:53:30;;;;;;;11.30;6.70;;;;;;;22.25;48.31;99933.45;106273;1269;22566;-80
2022/08/28 00:56:04;;;;;;;10.50;5.90;;;;;;;22.22;48.31;99934.02;106614;1268;24068;-75
2022/08/28 00:58:42;;;;;;;12.00;6.60;;;;;;;22.14;48.35;99926.06;106431;1268;22553;-76
2022/08/28 01:01:09;;;;;;;10.20;6.20;;;;;;;22.08;48.48;99925.90;106497;1268;22683;-76
2022/08/28 01:03:36;;;;;;;9.80;6.80;;;;;;;22.06;48.75;99931.30;106424;1268;24256;-74
2022/08/28 01:06:05;;;;;;;13.40;6.90;;;;;;;22.02;48.76;99931.16;106449;1268;24794;-74
2022/08/28 01:08:37;;;;;;;8.90;6.30;;;;;;;21.96;48.79;99930.45;106091;1268;22569;-75
2022/08/28 01:11:06;;;;;;;15.30;7.00;;;;;;;21.92;49.07;99933.20;106427;1268;24428;-74
2022/08/28 01:13:36;;;;;;;11.90;7.40;;;;;;;21.87;49.23;99932.98;106270;1269;22686;-74
2022/08/28 01:16:06;;;;;;;17.10;8.10;;;;;;;21.83;49.54;99928.61;106253;1269;23117;-81
2022/08/28 01:18:34;;;;;;;15.40;8.70;;;;;;;21.77;49.58;99928.05;106198;1268;22560;-75
2022/08/28 01:21:22;;;;;;;20.90;12.90;;;;;;;21.73;49.67;99928.97;106242;1268;22567;-76
2022/08/28 01:23:58;;;;;;;20.30;12.20;;;;;;;21.72;49.79;99924.94;106712;1268;22525;-75
2022/08/28 01:26:27;;;;;;;20.10;13.80;;;;;;;21.68;50.04;99925.90;106538;1268;25347;-77
2022/08/28 01:28:57;;;;;;;26.40;14.40;;;;;;;21.62;50.14;99923.98;106394;1268;22546;-75
2022/08/28 01:31:26;;;;;;;25.70;14.70;;;;;;;21.59;50.57;99928.13;106545;1268;22543;-75
2022/08/28 01:33:53;;;;;;;24.00;14.60;;;;;;;21.53;50.62;99926.67;106562;1268;22567;-79
2022/08/28 01:36:20;;;;;;;23.50;14.00;;;;;;;21.50;50.85;99928.12;106321;1268;22527;-78
2022/08/28 01:38:52;;;;;;;23.80;13.50;;;;;;;21.47;50.83;99929.53;106319;1268;22528;-74
2022/08/28 01:41:19;;;;;;;22.10;14.20;;;;;;;21.46;51.00;99929.78;106166;1268;25353;-75
2022/08/28 01:43:46;;;;;;;22.90;12.70;;;;;;;21.44;51.13;99925.63;106333;1269;24246;-80
2022/08/28 01:46:13;;;;;;;18.10;13.40;;;;;;;21.42;51.16;99926.77;106139;1268;24492;-78
2022/08/28 01:48:42;;;;;;;19.20;13.30;;;;;;;21.43;51.23;99923.02;106378;1268;25421;-76
2022/08/28 01:51:11;;;;;;;20.20;12.30;;;;;;;21.42;51.14;99921.10;106351;1268;22672;-75
2022/08/28 01:53:40;;;;;;;12.30;10.10;;;;;;;21.36;51.20;99918.02;106444;1268;25346;-74
2022/08/28 01:56:13;;;;;;;16.40;10.00;;;;;;;21.37;51.23;99923.16;106428;1268;22544;-73
2022/08/28 01:58:40;;;;;;;12.20;8.70;;;;;;;21.34;51.21;99925.32;106497;1268;25331;-75
2022/08/28 02:01:13;;;;;;;15.60;9.50;;;;;;;21.27;51.09;99925.35;106397;1268;22774;-73
2022/08/28 02:03:41;;;;;;;16.50;8.60;;;;;;;21.23;51.27;99929.02;106438;1268;26535;-73
2022/08/28 02:06:10;;;;;;;11.80;8.80;;;;;;;21.21;51.11;99927.19;106302;1268;22541;-77
2022/08/28 02:08:37;;;;;;;13.80;7.90;;;;;;;21.19;51.00;99927.14;106555;1268;25331;-77
2022/08/28 02:11:07;;;;;;;11.80;7.70;;;;;;;21.15;51.07;99925.19;106444;1268;22522;-78
2022/08/28 02:13:35;;;;;;;9.60;7.20;;;;;;;21.14;51.07;99926.89;106419;1268;22670;-75
2022/08/28 02:16:05;;;;;;;13.70;7.40;;;;;;;21.13;50.88;99925.30;106373;1268;24253;-75
2022/08/28 02:18:32;;;;;;;10.90;6.90;;;;;;;21.12;50.92;99923.04;106445;1268;24418;-76
2022/08/28 02:20:59;;;;;;;10.80;6.50;;;;;;;21.10;50.80;99921.73;106337;1269;22595;-76
2022/08/28 02:23:26;;;;;;;11.10;6.50;;;;;;;21.08;50.76;99927.61;106227;1268;22754;-76
2022/08/28 02:25:53;;;;;;;10.70;6.80;;;;;;;21.06;50.73;99925.20;106435;1268;22658;-75
2022/08/28 02:28:20;;;;;;;15.40;6.60;;;;;;;21.05;50.76;99924.05;106287;1268;25232;-74
2022/08/28 02:30:47;;;;;;;11.70;6.40;;;;;;;21.01;50.72;99922.09;106361;1268;22679;-75
2022/08/28 02:33:14;;;;;;;12.50;6.30;;;;;;;20.99;50.82;99920.45;106295;1267;22542;-76
2022/08/28 02:35:41;;;;;;;8.70;6.00;;;;;;;20.96;50.64;99919.58;106303;1268;24312;-76
2022/08/28 02:38:09;;;;;;;13.50;6.30;;;;;;;20.94;50.69;99916.45;106220;1268;23759;-76
2022/08/28 02:40:37;;;;;;;10.80;6.60;;;;;;;20.93;50.64;99917.26;106378;1268;22867;-75
2022/08/28 02:43:05;;;;;;;10.00;6.40;;;;;;;20.91;50.79;99916.59;106352;1268;22538;-75
2022/08/28 02:45:32;;;;;;;11.10;6.90;;;;;;;20.90;50.72;99917.73;106314;1268;22658;-77
2022/08/28 02:48:00;;;;;;;7.40;5.90;;;;;;;20.87;50.63;99919.33;106490;1268;25384;-75
2022/08/28 02:50:30;;;;;;;8.80;6.00;;;;;;;20.85;50.64;99915.70;106022;1274;25436;-75
2022/08/28 02:52:57;;;;;;;11.80;5.80;;;;;;;20.84;50.63;99914.52;106118;1274;22528;-77
2022/08/28 02:55:24;;;;;;;8.90;6.20;;;;;;;20.81;50.71;99916.63;105781;1274;24237;-79
2022/08/28 02:57:53;;;;;;;11.50;6.80;;;;;;;20.78;50.59;99915.92;106186;1274;22564;-76
2022/08/28 03:00:23;;;;;;;10.50;6.50;;;;;;;20.76;50.61;99921.23;106001;1274;22530;-75
2022/08/28 03:02:52;;;;;;;11.10;6.10;;;;;;;20.76;50.72;99926.61;105878;1274;25662;-75
2022/08/28 03:05:22;;;;;;;7.60;6.40;;;;;;;20.74;50.71;99926.89;105945;1274;22554;-75
2022/08/28 03:07:52;;;;;;;9.00;6.50;;;;;;;20.70;50.72;99927.67;106012;1271;22515;-76
2022/08/28 03:10:19;;;;;;;11.40;6.50;;;;;;;20.67;50.95;99925.70;106294;1268;24214;-74
2022/08/28 03:12:47;;;;;;;9.50;5.80;;;;;;;20.65;50.95;99930.48;106408;1268;24416;-76
2022/08/28 03:15:13;;;;;;;11.60;6.80;;;;;;;20.63;51.03;99927.52;106395;1268;26596;-76
2022/08/28 03:17:40;;;;;;;12.30;6.30;;;;;;;20.60;51.01;99924.14;106582;1268;23187;-75
2022/08/28 03:20:09;;;;;;;9.40;6.20;;;;;;;20.59;51.10;99922.77;106400;1268;24218;-79
2022/08/28 03:25:23;;;;;;;10.30;6.80;;;;;;;20.52;51.38;99919.23;107122;1268;22810;-73
2022/08/28 03:27:50;;;;;;;16.00;6.50;;;;;;;20.49;51.46;99919.74;108272;1265;22572;-73
2022/08/28 03:30:20;;;;;;;10.70;6.30;;;;;;;20.46;51.44;99920.80;107206;1268;23955;-74
2022/08/28 03:32:47;;;;;;;13.40;6.50;;;;;;;20.44;51.42;99916.30;107630;1268;22558;-73
2022/08/28 03:35:15;;;;;;;8.80;6.80;;;;;;;20.42;51.48;99916.19;107969;1274;22553;-73
2022/08/28 03:37:43;;;;;;;10.10;6.20;;;;;;;20.44;51.40;99916.67;106968;1274;22768;-75
2022/08/28 03:40:12;;;;;;;9.70;6.40;;;;;;;20.42;51.35;99916.80;106262;1274;22541;-76
2022/08/28 03:42:40;;;;;;;9.70;6.80;;;;;;;20.41;51.45;99919.68;105869;1279;24819;-80
2022/08/28 03:45:08;;;;;;;12.50;6.10;;;;;;;20.41;51.57;99924.34;105638;1280;24388;-76
2022/08/28 03:47:40;;;;;;;10.50;6.50;;;;;;;20.40;51.71;99922.42;105584;1279;25305;-77
2022/08/28 03:50:11;;;;;;;11.70;6.50;;;;;;;20.40;51.47;99929.94;105587;1279;23874;-76
2022/08/28 03:52:39;;;;;;;9.80;6.20;;;;;;;20.38;51.41;99930.38;105357;1278;22556;-77
2022/08/28 03:55:08;;;;;;;15.60;6.10;;;;;;;20.39;51.51;99933.77;105910;1277;22553;-74
2022/08/28 03:57:36;;;;;;;12.10;6.10;;;;;;;20.39;51.73;99935.34;105972;1277;22642;-77
2022/08/28 04:00:06;;;;;;;8.80;6.20;;;;;;;20.40;51.76;99934.95;106086;1274;22605;-75
2022/08/28 04:02:38;;;;;;;9.10;6.10;;;;;;;20.40;51.84;99936.52;106473;1271;22544;-79
2022/08/28 04:05:06;;;;;;;12.30;6.90;;;;;;;20.39;51.98;99938.40;106334;1271;22584;-77
2022/08/28 04:07:33;;;;;;;12.10;7.00;;;;;;;20.36;51.97;99940.20;106329;1271;22731;-78
2022/08/28 04:10:01;;;;;;;10.60;6.70;;;;;;;20.32;51.95;99942.17;106489;1271;24429;-78
2022/08/28 04:12:29;;;;;;;15.00;6.90;;;;;;;20.32;52.07;99944.51;106546;1271;22544;-76
2022/08/28 04:15:01;;;;;;;10.50;6.60;;;;;;;20.30;52.10;99947.28;106449;1271;24299;-76
2022/08/28 04:17:28;;;;;;;13.50;6.70;;;;;;;20.29;52.10;99944.52;106462;1271;24371;-76
2022/08/28 04:19:55;;;;;;;8.50;6.20;;;;;;;20.30;52.08;99944.44;106565;1271;22527;-78
2022/08/28 04:22:22;;;;;;;9.90;6.30;;;;;;;20.30;52.22;99947.66;106445;1271;22566;-77
2022/08/28 04:24:49;;;;;;;13.60;6.90;;;;;;;20.30;52.22;99946.05;106398;1269;22575;-75
2022/08/28 04:27:16;;;;;;;8.60;5.50;;;;;;;20.28;52.27;99944.39;106467;1271;22543;-79
2022/08/28 04:29:43;;;;;;;12.90;6.40;;;;;;;20.29;52.38;99941.61;106476;1271;22884;-81
2022/08/28 04:32:10;;;;;;;10.80;6.90;;;;;;;20.31;52.46;99945.98;106457;1271;22839;-76
2022/08/28 04:34:37;;;;;;;13.40;6.70;;;;;;;20.31;52.64;99943.34;106301;1271;22570;-79
2022/08/28 04:37:05;;;;;;;8.80;6.60;;;;;;;20.29;52.77;99947.55;106244;1270;25290;-76
2022/08/28 04:39:32;;;;;;;16.30;7.80;;;;;;;20.28;53.03;99951.85;106353;1271;24228;-77
2022/08/28 04:41:59;;;;;;;8.40;6.60;;;;;;;20.31;53.17;99955.29;106402;1270;25264;-75
2022/08/28 04:44:26;;;;;;;11.70;6.70;;;;;;;20.34;53.16;99951.73;106126;1271;22717;-76
2022/08/28 04:46:53;;;;;;;12.80;6.20;;;;;;;20.31;53.20;99951.35;106075;1271;23739;-74
2022/08/28 04:49:21;;;;;;;14.90;7.00;;;;;;;20.32;53.30;99949.89;106250;1271;25245;-75
2022/08/28 04:51:51;;;;;;;11.50;6.70;;;;;;;20.33;53.27;99946.06;106205;1271;25480;-76
2022/08/28 04:54:19;;;;;;;14.40;6.70;;;;;;;20.34;53.30;99948.17;106371;1271;25249;-75
2022/08/28 04:56:46;;;;;;;17.60;6.70;;;;;;;20.36;53.40;99944.81;106199;1271;22767;-77
2022/08/28 04:59:13;;;;;;;11.80;6.60;;;;;;;20.39;53.37;99945.02;106393;1268;22690;-75
2022/08/28 05:01:41;;;;;;;9.90;7.10;;;;;;;20.42;53.31;99943.08;106308;1268;25225;-76
2022/08/28 05:04:10;;;;;;;10.60;6.20;;;;;;;20.46;53.21;99942.30;106333;1268;23016;-74
2022/08/28 05:06:45;;;;;;;9.90;6.10;;;;;;;20.48;53.11;99946.27;106261;1268;22522;-76
2022/08/28 05:09:15;;;;;;;9.50;6.20;;;;;;;20.47;53.32;99938.98;106715;1268;25234;-76
2022/08/28 05:11:44;;;;;;;10.10;6.30;;;;;;;20.55;53.20;99947.33;106697;1271;22556;-75
2022/08/28 05:14:13;;;;;;;12.60;6.40;;;;;;;20.58;53.16;99943.55;106734;1271;23110;-75
2022/08/28 05:16:45;;;;;;;10.80;6.40;;;;;;;20.62;53.02;99943.48;106787;1268;22540;-75
2022/08/28 05:19:13;;;;;;;10.70;6.20;;;;;;;20.65;52.90;99942.25;106975;1268;22591;-73
2022/08/28 05:21:41;;;;;;;9.60;6.20;;;;;;;20.69;52.80;99937.54;107216;1268;22730;-75
2022/08/28 05:24:09;;;;;;;10.60;5.40;;;;;;;20.73;52.54;99942.52;107155;1268;24224;-75
2022/08/28 05:26:36;;;;;;;10.90;6.40;;;;;;;20.76;52.44;99946.59;106697;1268;22528;-75
2022/08/28 05:29:06;;;;;;;14.30;6.00;;;;;;;20.83;52.22;99946.23;106478;1268;25232;-74
2022/08/28 05:31:33;;;;;;;11.10;6.00;;;;;;;20.86;52.06;99943.35;106365;1268;22585;-77
2022/08/28 05:34:01;;;;;;;12.90;6.10;;;;;;;20.93;52.08;99941.57;106287;1268;23018;-74
2022/08/28 05:36:31;;;;;;;9.10;6.00;;;;;;;20.96;52.06;99942.45;106269;1271;25421;-74
2022/08/28 05:39:00;;;;;;;8.20;5.50;;;;;;;21.06;51.99;99943.67;106037;1271;23840;-75
2022/08/28 05:41:29;;;;;;;9.00;5.90;;;;;;;21.11;51.86;99946.77;106342;1271;24424;-75
2022/08/28 05:44:01;;;;;;;13.60;6.80;;;;;;;21.15;51.58;99949.77;106166;1268;22540;-75
2022/08/28 05:46:28;;;;;;;12.80;7.20;;;;;;;21.20;51.52;99954.46;106234;1268;22690;-74
2022/08/28 05:48:56;;;;;;;10.60;6.00;;;;;;;21.23;51.39;99958.19;106216;1271;22584;-74
2022/08/28 05:51:25;;;;;;;11.60;6.00;;;;;;;21.27;51.51;99956.88;106295;1271;24418;-75
2022/08/28 05:53:54;;;;;;;11.00;5.90;;;;;;;21.34;51.35;99954.71;106187;1271;23186;-74
2022/08/28 05:56:28;;;;;;;12.40;6.20;;;;;;;21.37;51.28;99951.47;106121;1268;22609;-74
2022/08/28 05:58:58;;;;;;;13.20;6.10;;;;;;;21.42;51.39;99952.05;106125;1271;22545;-77
2022/08/28 06:01:28;;;;;;;15.00;6.40;;;;;;;21.47;51.35;99951.05;106214;1268;22675;-74
2022/08/28 06:04:00;;;;;;;9.80;6.00;;;;;;;21.51;51.38;99951.14;106340;1268;22838;-75
2022/08/28 06:06:32;;;;;;;12.00;6.30;;;;;;;21.57;51.27;99953.99;105781;1277;22669;-74
2022/08/28 06:09:09;;;;;;;7.50;6.00;;;;;;;21.62;51.26;99954.03;105791;1277;24441;-75
2022/08/28 06:11:37;;;;;;;7.80;5.80;;;;;;;21.69;51.75;99957.73;105874;1277;22533;-77
2022/08/28 06:14:16;;;;;;;7.80;5.30;;;;;;;21.75;51.87;99958.08;105885;1276;22727;-72
2022/08/28 06:16:49;;;;;;;11.90;6.00;;;;;;;21.80;52.08;99956.60;106175;1277;23074;-75
2022/08/28 06:19:17;;;;;;;9.10;5.90;;;;;;;21.84;51.92;99951.86;105867;1277;22525;-75
2022/08/28 06:21:46;;;;;;;9.10;5.80;;;;;;;21.87;52.12;99949.83;105835;1278;26549;-74
2022/08/28 06:24:14;;;;;;;10.10;6.20;;;;;;;21.93;51.99;99953.20;106003;1268;25239;-75
2022/08/28 06:26:41;;;;;;;8.90;6.40;;;;;;;21.98;51.98;99958.13;106476;1268;23943;-76
2022/08/28 06:29:14;;;;;;;8.20;6.10;;;;;;;22.03;51.99;99960.15;106268;1268;22535;-79
2022/08/28 06:31:41;;;;;;;9.00;6.10;;;;;;;22.06;52.10;99960.31;107020;1268;25184;-75
2022/08/28 06:34:09;;;;;;;10.40;6.60;;;;;;;22.10;51.74;99959.17;107102;1268;25360;-75
2022/08/28 06:36:40;;;;;;;13.30;6.50;;;;;;;22.11;51.85;99955.99;106650;1268;23954;-75
2022/08/28 06:39:09;;;;;;;11.50;6.40;;;;;;;22.14;51.66;99956.91;107328;1268;24205;-75
2022/08/28 06:41:41;;;;;;;10.60;6.20;;;;;;;22.16;51.90;99954.78;106986;1268;22473;-76
2022/08/28 06:44:12;;;;;;;11.70;6.60;;;;;;;22.23;51.88;99953.67;106704;1268;26576;-76
2022/08/28 06:46:40;;;;;;;15.70;7.10;;;;;;;22.27;51.95;99947.84;106175;1271;22525;-81
2022/08/28 06:49:07;;;;;;;11.10;6.40;;;;;;;22.33;51.91;99950.85;106526;1268;22547;-77
2022/08/28 06:51:35;;;;;;;10.90;7.00;;;;;;;22.37;51.63;99951.48;106433;1268;22983;-72
2022/08/28 06:54:03;;;;;;;10.10;6.30;;;;;;;22.41;51.53;99949.61;106239;1268;25246;-74
2022/08/28 06:56:30;;;;;;;12.10;5.80;;;;;;;22.47;51.56;99949.07;106299;1268;22589;-76
2022/08/28 06:58:58;;;;;;;9.80;6.00;;;;;;;22.51;51.28;99955.98;106425;1271;25349;-75
2022/08/28 07:01:32;;;;;;;12.60;6.40;;;;;;;22.55;51.01;99956.79;106269;1272;24206;-73
2022/08/28 07:04:02;;;;;;;9.10;6.30;;;;;;;22.61;50.90;99954.83;106501;1268;23256;-75
2022/08/28 07:06:33;;;;;;;9.50;6.30;;;;;;;22.65;50.55;99955.96;106381;1268;25620;-76
2022/08/28 07:09:02;;;;;;;8.50;6.50;;;;;;;22.69;50.39;99955.52;106220;1268;22588;-74
2022/08/28 07:11:31;;;;;;;11.80;6.40;;;;;;;22.73;50.26;99952.57;106428;1268;24701;-74
2022/08/28 07:14:01;;;;;;;10.60;6.40;;;;;;;22.80;50.26;99950.88;106483;1271;24195;-74
2022/08/28 07:16:31;;;;;;;11.70;6.90;;;;;;;22.85;50.13;99950.15;106568;1268;22525;-75
2022/08/28 07:19:01;;;;;;;12.20;6.50;;;;;;;22.92;50.27;99952.18;106052;1274;25357;-73
2022/08/28 07:21:29;;;;;;;11.00;6.10;;;;;;;23.02;50.24;99948.69;105960;1276;25403;-74
2022/08/28 07:23:57;;;;;;;13.20;6.50;;;;;;;23.09;50.17;99949.64;106015;1274;23926;-76
2022/08/28 07:26:24;;;;;;;13.80;6.10;;;;;;;23.18;49.69;99947.94;105869;1274;23500;-72
2022/08/28 07:28:53;;;;;;;8.80;6.10;;;;;;;23.26;49.63;99948.09;106098;1274;22848;-74
2022/08/28 07:31:40;;;;;;;9.90;6.50;;;;;;;23.36;49.40;99946.50;105824;1274;24275;-72
2022/08/28 07:34:08;;;;;;;13.20;6.40;;;;;;;23.45;49.09;99950.77;105895;1274;25244;-71
2022/08/28 07:36:35;;;;;;;12.00;5.80;;;;;;;23.54;49.27;99949.23;105977;1268;25620;-79
2022/08/28 07:39:04;;;;;;;10.30;5.50;;;;;;;23.63;49.01;99951.64;106347;1269;23996;-76
2022/08/28 07:41:34;;;;;;;11.80;6.40;;;;;;;23.70;49.07;99940.59;106308;1271;22714;-77
2022/08/28 07:46:47;;;;;;;9.60;6.90;;;;;;;23.92;49.11;99942.41;106431;1268;24770;-78
2022/08/28 07:49:15;;;;;;;10.40;6.50;;;;;;;24.02;48.92;99944.80;106351;1268;22607;-77
2022/08/28 07:51:43;;;;;;;15.40;6.90;;;;;;;24.11;48.72;99936.74;106412;1268;22541;-76
2022/08/28 07:54:13;;;;;;;11.60;6.70;;;;;;;24.20;48.16;99933.02;106383;1271;22585;-77
2022/08/28 07:56:44;;;;;;;9.00;6.20;;;;;;;24.33;47.85;99937.88;106531;1268;25499;-76
2022/08/28 07:59:13;;;;;;;11.40;6.90;;;;;;;24.45;47.65;99941.09;106508;1268;22522;-75
2022/08/28 08:01:45;;;;;;;16.40;6.90;;;;;;;24.57;47.51;99944.02;106451;1268;25286;-74
2022/08/28 08:04:15;;;;;;;12.90;6.50;;;;;;;24.70;47.53;99946.85;106494;1268;22520;-74
2022/08/28 08:06:43;;;;;;;8.80;6.10;;;;;;;24.83;47.18;99947.67;106233;1271;25470;-75
2022/08/28 08:09:14;;;;;;;8.80;5.30;;;;;;;24.96;46.25;99952.63;106555;1268;25368;-75
2022/08/28 08:11:41;;;;;;;13.30;6.80;;;;;;;25.11;45.86;99950.45;106503;1268;25816;-76
2022/08/28 08:14:09;;;;;;;13.40;6.50;;;;;;;25.26;45.48;99947.66;106450;1268;23182;-76
2022/08/28 08:16:40;;;;;;;12.70;5.70;;;;;;;25.38;45.41;99941.11;105955;1277;22706;-80
2022/08/28 08:19:12;;;;;;;10.90;5.90;;;;;;;25.55;45.44;99946.32;106011;1274;24434;-78
2022/08/28 08:21:42;;;;;;;11.40;6.10;;;;;;;25.71;45.36;99942.73;106058;1274;22798;-74
2022/08/28 08:24:09;;;;;;;11.70;5.70;;;;;;;25.86;44.99;99944.95;106155;1274;24439;-74
2022/08/28 08:26:36;;;;;;;9.70;5.30;;;;;;;26.03;44.79;99942.73;106033;1274;25433;-75
2022/08/28 08:29:03;;;;;;;8.80;5.40;;;;;;;26.18;44.27;99944.74;106056;1274;23182;-75
2022/08/28 08:31:32;;;;;;;13.00;6.70;;;;;;;26.34;44.11;99949.06;106017;1274;22695;-76
2022/08/28 08:34:03;;;;;;;10.40;5.00;;;;;;;26.51;43.92;99951.42;106042;1269;25437;-78
2022/08/28 08:36:31;;;;;;;10.90;5.40;;;;;;;26.68;43.48;99953.45;106619;1268;24218;-76
2022/08/28 08:38:58;;;;;;;10.50;5.70;;;;;;;26.82;42.99;99953.06;106614;1268;22681;-82
2022/08/28 08:41:35;;;;;;;11.10;6.20;;;;;;;26.91;42.39;99952.45;106411;1269;22535;-80
2022/08/28 08:44:08;;;;;;;9.80;5.40;;;;;;;27.01;42.11;99952.89;106310;1271;22556;-76
2022/08/28 08:46:50;;;;;;;11.20;5.40;;;;;;;27.12;42.17;99954.54;105998;1271;22541;-76
2022/08/28 08:49:22;;;;;;;9.50;5.50;;;;;;;27.24;42.22;99951.32;106373;1268;25238;-77
2022/08/28 08:51:57;;;;;;;14.90;6.10;;;;;;;27.36;41.99;99950.46;105947;1276;22531;-77
2022/08/28 08:54:24;;;;;;;10.00;5.60;;;;;;;27.46;42.04;99953.73;106116;1274;22595;-77
2022/08/28 08:56:55;;;;;;;11.70;5.80;;;;;;;27.60;41.72;99956.05;106000;1274;22555;-76
2022/08/28 08:59:28;;;;;;;11.90;5.10;;;;;;;27.67;41.62;99958.09;106022;1274;26807;-79
2022/08/28 09:02:10;;;;;;;12.30;5.30;;;;;;;27.73;41.44;99958.66;105975;1274;22568;-81
2022/08/28 09:04:45;;;;;;;11.30;5.20;;;;;;;27.82;41.26;99959.15;106097;1274;22563;-76
2022/08/28 09:07:14;;;;;;;10.00;5.50;;;;;;;27.94;40.75;99952.66;106254;1273;23016;-78
2022/08/28 09:09:48;;;;;;;10.40;5.20;;;;;;;28.02;40.80;99954.14;106313;1274;22616;-77
2022/08/28 09:12:25;;;;;;;9.60;5.00;;;;;;;28.13;40.62;99956.92;106782;1268;24190;-75
2022/08/28 09:15:13;;;;;;;9.80;5.10;;;;;;;28.14;39.97;99954.56;105386;1268;1920043;-74
2022/08/28 09:17:48;;;;;;;13.90;5.60;;;;;;;28.15;40.05;99960.70;106851;1268;26570;-75
2022/08/28 09:20:20;;;;;;;;;;;;;;;28.19;39.47;99958.77;106765;1268;23171;-74
2022/08/28 09:22:58;;;;;;;9.50;6.10;;;;;;;28.25;39.05;99960.02;106719;1268;24243;-74
2022/08/28 09:26:10;;;;;;;10.00;5.00;;;;;;;28.40;39.38;99962.38;106613;1268;25397;-75
2022/08/28 09:28:40;;;;;;;12.50;5.70;;;;;;;28.58;39.09;99957.59;106102;1277;24328;-75
2022/08/28 09:31:30;;;;;;;13.10;5.60;;;;;;;28.71;38.89;99951.52;106185;1271;25603;-78
2022/08/28 09:34:15;;;;;;;9.80;4.50;;;;;;;28.85;39.58;99955.15;106378;1271;25241;-74
2022/08/28 09:36:42;;;;;;;20.20;5.60;;;;;;;29.04;38.95;99956.85;107032;1268;22610;-74
2022/08/28 09:39:17;;;;;;;10.50;5.60;;;;;;;29.12;38.89;99955.77;107422;1268;23479;-76
2022/08/28 09:45:17;;;;;;;;;;;;;;;29.33;38.36;99953.98;107435;1268;22737;-76
2022/08/28 09:47:51;;;;;;;9.50;5.20;;;;;;;29.47;38.02;99954.85;107261;1268;24781;-75
2022/08/28 09:50:37;;;;;;;14.10;5.10;;;;;;;29.54;37.81;99950.36;106756;1269;24314;-76
2022/08/28 09:53:10;;;;;;;9.20;5.00;;;;;;;29.68;38.07;99950.10;106615;1268;22538;-76
2022/08/28 09:56:25;;;;;;;8.30;4.50;;;;;;;29.80;37.38;99950.61;106726;1268;23915;-75
2022/08/28 09:59:06;;;;;;;12.40;4.50;;;;;;;29.98;37.44;99952.52;106569;1268;22614;-82
2022/08/28 10:01:54;;;;;;;8.20;4.80;;;;;;;30.09;37.16;99949.02;106524;1268;22513;-75
2022/08/28 10:04:40;;;;;;;12.50;4.90;;;;;;;30.32;36.52;99953.38;106500;1268;23335;-75
2022/08/28 10:07:29;;;;;;;13.70;5.00;;;;;;;30.46;35.71;99954.02;106387;1269;23950;-80
2022/08/28 10:10:17;;;;;;;10.40;4.10;;;;;;;30.64;36.05;99954.23;106365;1271;22528;-81
2022/08/28 10:13:04;;;;;;;12.10;4.50;;;;;;;30.79;35.53;99951.61;106396;1268;24270;-78
2022/08/28 10:16:13;;;;;;;5.90;4.20;;;;;;;30.89;35.43;99947.71;106416;1271;22567;-79
2022/08/28 10:19:02;;;;;;;6.40;3.70;;;;;;;31.14;35.15;99945.68;106203;1268;25405;-79
2022/08/28 10:22:04;;;;;;;4.90;3.90;;;;;;;31.35;34.72;99946.30;106454;1268;25334;-77
2022/08/28 10:24:44;;;;;;;6.70;4.30;;;;;;;31.50;34.31;99944.77;106444;1271;25305;-84
2022/08/28 10:27:21;;;;;;;7.80;4.00;;;;;;;31.56;34.31;99945.36;106381;1268;22632;-82
2022/08/28 10:30:08;;;;;;;8.30;3.90;;;;;;;31.66;34.26;99941.47;106404;1268;25322;-76
2022/08/28 10:33:16;;;;;;;11.10;4.30;;;;;;;31.67;34.25;99943.17;106404;1268;24265;-80
2022/08/28 10:35:50;;;;;;;7.10;4.20;;;;;;;31.63;34.32;99937.06;106468;1269;22540;-78
2022/08/28 10:38:27;;;;;;;9.70;4.30;;;;;;;31.66;34.48;99941.67;106470;1271;23511;-74
2022/08/28 10:41:27;;;;;;;8.50;3.90;;;;;;;31.77;34.65;99941.35;106445;1269;24294;-77
2022/08/28 10:44:00;;;;;;;4.90;3.60;;;;;;;31.91;34.47;99937.91;106357;1271;22618;-78
2022/08/28 10:46:34;;;;;;;11.20;4.10;;;;;;;32.12;34.15;99932.02;106488;1268;22530;-74
2022/08/28 10:49:09;;;;;;;5.30;3.70;;;;;;;32.33;33.91;99929.20;106212;1271;24912;-80
2022/08/28 10:51:53;;;;;;;9.40;4.30;;;;;;;32.47;33.53;99937.79;106501;1268;22655;-85
2022/08/28 10:54:29;;;;;;;9.70;4.10;;;;;;;32.52;33.30;99931.21;106550;1268;22659;-77
2022/08/28 10:57:04;;;;;;;;;;;;;;;32.49;33.14;99928.94;106452;1268;24224;-79
2022/08/28 10:59:33;;;;;;;7.60;4.10;;;;;;;32.55;33.41;99930.49;106925;1268;22536;-86
2022/08/28 11:02:12;;;;;;;4.50;3.70;;;;;;;32.69;32.92;99926.42;106437;1273;22534;-83
2022/08/28 11:04:39;;;;;;;7.10;4.30;;;;;;;32.76;32.88;99922.75;106594;1274;23165;-85
2022/08/28 11:07:12;;;;;;;9.00;4.10;;;;;;;32.85;32.90;99922.92;106312;1271;25245;-83
2022/08/28 11:09:46;;;;;;;6.10;3.70;;;;;;;33.07;32.97;99920.78;106444;1268;22754;-81
2022/08/28 11:12:16;;;;;;;8.60;3.70;;;;;;;33.26;32.65;99920.31;106528;1271;23006;-81
2022/08/28 11:14:46;;;;;;;6.80;3.70;;;;;;;33.40;32.20;99920.27;106575;1268;24376;-79
2022/08/28 11:17:20;;;;;;;6.30;3.70;;;;;;;33.50;32.00;99919.63;106589;1271;23180;-80
2022/08/28 11:19:56;;;;;;;11.90;3.90;;;;;;;33.64;32.03;99921.54;106532;1268;22627;-78
2022/08/28 11:22:35;;;;;;;7.50;4.30;;;;;;;33.72;31.66;99923.02;106431;1269;22547;-77
2022/08/28 11:25:15;;;;;;;6.60;3.80;;;;;;;33.74;31.22;99924.29;106268;1271;22678;-77
2022/08/28 11:28:14;;;;;;;8.10;3.90;;;;;;;33.87;30.92;99921.51;106296;1271;24278;-78
2022/08/28 11:30:44;;;;;;;7.80;4.10;;;;;;;33.95;30.48;99921.16;106495;1268;22799;-75
2022/08/28 11:33:49;;;;;;;5.60;3.60;;;;;;;34.08;30.56;99919.86;106554;1268;25318;-78
2022/08/28 11:36:18;;;;;;;7.50;3.50;;;;;;;34.12;30.29;99919.66;106467;1271;25253;-80
2022/08/28 11:38:54;;;;;;;7.30;3.90;;;;;;;34.34;29.76;99918.71;106503;1269;22857;-76
2022/08/28 11:41:33;;;;;;;7.30;3.60;;;;;;;34.55;28.77;99923.84;106664;1268;23009;-78
2022/08/28 11:44:09;;;;;;;6.30;3.50;;;;;;;34.71;28.00;99928.92;105991;1275;22582;-79
2022/08/28 11:46:50;;;;;;;7.20;3.60;;;;;;;34.89;27.77;99921.34;106107;1273;22755;-81
2022/08/28 11:49:33;;;;;;;7.30;3.30;;;;;;;35.03;27.69;99925.48;105863;1278;22535;-77
2022/08/28 11:52:21;;;;;;;9.00;3.50;;;;;;;35.21;27.36;99924.50;106137;1274;22650;-79